ASN logo
ASN Wikibase Occurrence # 232692
Last updated: 1 June 2020
This information is added by users of ASN. Neither ASN nor the Flight Safety Foundation are responsible for the completeness or correctness of this information. If you feel this information is incomplete or incorrect, you can submit corrected information.

Date:01-FEB-2020
Time:02:32 UTC
Type:Silhouette image of generic A319 model; specific model in this crash may look slightly different
Airbus A319-111
Owner/operator:Iran Air
Registration: EP-IEQ
C/n / msn: 1679
Fatalities:Fatalities: 0 / Occupants: 102
Other fatalities:0
Aircraft damage: None
Category:Incident
Location:Kermanshah Airport (OICC) -   Iran
Phase: Landing
Nature:Domestic Scheduled Passenger
Departure airport:Tehran-Mehrabad Airport (THR/OIII)
Destination airport:Kermanshah Airport (KSH/OICC)
Investigating agency: AAID Iran
Narrative:
IranAir flight IR283, an Airbus A319, ran off the end of runway 29 after landing at Kermanshah Airport (OICC), Iran in a snowstorm.
It came to a stop in the snow with the nose landing gear off the runway; there was no damage.


Weather about the incident time (0232Z):
OICC 010300Z 30012KT 0400 R29/0400U SN FG FEW010 FEW035CB OVC060 M01/M02 Q1010 A2985
OICC 010230Z 30017KT 0300 R29/0300D SHSN FG FEW010 SCT035CB OVC060 M00/M01 Q1010 A2983
OICC 010200Z 15014KT 7000 -RA FEW015 OVC070 03/01 Q1009 A2982

Sources:

http://mehrnews.com/news/4840770

Accident investigation:
cover
  
Investigating agency: AAID Iran
Status: Investigation completed
Duration:
Download report: Final report


Images:


Photo: mehrnews.com

Revision history:

Date/timeContributorUpdates
01-Feb-2020 07:13 harro Added
01-Feb-2020 07:18 harro Updated [Source, Embed code, Narrative, Photo]
05-Feb-2020 10:39 harro Updated [Narrative, Accident report, ]
05-Feb-2020 10:43 harro Updated [Narrative, Accident report, ]

Corrections or additions? ... Edit this accident description